Time;durP1;ratioP1;P1;durP2;ratioP2;P2;SDS_P1;SDS_P2;PMS_P1;PMS_P2;Temp;Humidity;BMP_temperature;BMP_pressure;BME280_temperature;BME280_humidity;BME280_pressure;Samples;Min_cycle;Max_cycle;Signal;HPM_P1;HPM_P2
2023/09/28 00:03:03;;;;;;;15.40;9.10;;;;;;;16.66;62.47;101575.80;105155;1255;64818;-48
2023/09/28 00:05:32;;;;;;;12.40;9.30;;;;;;;16.69;62.37;101574.95;105543;1251;60586;-48
2023/09/28 00:08:00;;;;;;;13.10;9.00;;;;;;;16.70;62.39;101571.84;105507;1254;60479;-48
2023/09/28 00:10:28;;;;;;;11.00;8.40;;;;;;;16.69;62.23;101573.51;106457;1251;65015;-48
2023/09/28 00:12:56;;;;;;;16.40;9.10;;;;;;;16.66;62.24;101574.89;105195;1257;60386;-50
2023/09/28 00:15:24;;;;;;;12.00;8.30;;;;;;;16.61;62.28;101578.48;105223;1254;63681;-47
2023/09/28 00:17:52;;;;;;;14.40;8.60;;;;;;;16.61;62.13;101581.48;105917;1256;60418;-48
2023/09/28 00:20:22;;;;;;;13.20;8.90;;;;;;;16.62;62.22;101583.35;105302;1256;60421;-50
2023/09/28 00:22:54;;;;;;;11.60;8.60;;;;;;;16.61;62.18;101582.90;105880;1251;73884;-48
2023/09/28 00:25:23;;;;;;;13.20;8.70;;;;;;;16.56;62.29;101583.67;105847;1254;61402;-47
2023/09/28 00:27:52;;;;;;;11.70;8.40;;;;;;;16.51;62.36;101585.84;105199;1254;63758;-48
2023/09/28 00:30:22;;;;;;;14.00;9.30;;;;;;;16.49;62.27;101585.37;105848;1257;60533;-49
2023/09/28 00:32:51;;;;;;;12.60;8.70;;;;;;;16.45;62.28;101583.38;105843;1256;60431;-49
2023/09/28 00:35:19;;;;;;;13.40;8.60;;;;;;;16.46;62.08;101584.56;105903;1252;65062;-49
2023/09/28 00:37:48;;;;;;;12.20;8.00;;;;;;;16.47;62.14;101583.02;105986;1251;61393;-49
2023/09/28 00:40:31;;;;;;;11.90;9.10;;;;;;;16.47;62.11;101582.18;106030;1254;63724;-49
2023/09/28 00:43:00;;;;;;;13.50;9.60;;;;;;;16.45;62.08;101583.08;105654;1254;60574;-49
2023/09/28 00:45:27;;;;;;;14.00;8.30;;;;;;;16.43;62.07;101584.61;107334;1256;60425;-47
2023/09/28 00:47:59;;;;;;;14.00;9.40;;;;;;;16.40;61.98;101583.13;105418;1257;65348;-48
2023/09/28 00:50:28;;;;;;;12.10;8.20;;;;;;;16.34;61.99;101583.80;105797;1254;61629;-48
2023/09/28 00:53:07;;;;;;;13.80;8.20;;;;;;;16.32;62.01;101580.94;105709;1253;63839;-49
2023/09/28 00:55:39;;;;;;;10.70;8.10;;;;;;;16.32;62.34;101579.52;105523;1251;60540;-49
2023/09/28 00:58:10;;;;;;;14.20;8.50;;;;;;;16.34;62.48;101581.68;105561;1255;60440;-48
2023/09/28 01:00:40;;;;;;;17.60;9.40;;;;;;;16.35;62.58;101582.27;105426;1252;63700;-53
2023/09/28 01:03:09;;;;;;;12.70;9.60;;;;;;;16.34;62.62;101584.84;105610;1256;61282;-52
2023/09/28 01:05:40;;;;;;;13.70;9.20;;;;;;;16.32;62.59;101579.90;105620;1251;63765;-52
2023/09/28 01:08:11;;;;;;;12.00;9.30;;;;;;;16.30;62.64;101581.52;105425;1256;60552;-53
2023/09/28 01:10:40;;;;;;;12.20;8.60;;;;;;;16.27;62.76;101576.80;105583;1251;60559;-53
2023/09/28 01:13:12;;;;;;;14.50;8.50;;;;;;;16.28;63.26;101581.33;105436;1251;65354;-53
2023/09/28 01:15:48;;;;;;;12.30;8.70;;;;;;;16.32;63.30;101580.81;105553;1251;61254;-53
2023/09/28 01:18:17;;;;;;;12.80;8.70;;;;;;;16.32;63.44;101582.33;106112;1254;63656;-53
2023/09/28 01:20:46;;;;;;;13.40;9.10;;;;;;;16.31;63.87;101582.48;105360;1254;60559;-52
2023/09/28 01:23:13;;;;;;;11.50;8.90;;;;;;;16.31;64.15;101584.09;106234;1257;60434;-53
2023/09/28 01:25:45;;;;;;;13.20;9.80;;;;;;;16.27;64.01;101584.40;105326;1251;63760;-54
2023/09/28 01:28:13;;;;;;;12.70;9.00;;;;;;;16.22;64.06;101582.36;106249;1252;61468;-54
2023/09/28 01:30:40;;;;;;;13.10;8.30;;;;;;;16.20;64.05;101583.42;105364;1251;62587;-52
2023/09/28 01:33:09;;;;;;;13.50;9.70;;;;;;;16.22;63.91;101582.88;105403;1252;60597;-53
2023/09/28 01:35:37;;;;;;;12.20;9.20;;;;;;;16.25;63.88;101587.95;105428;1257;60536;-52
2023/09/28 01:38:24;;;;;;;14.50;9.00;;;;;;;16.27;63.82;101588.16;105520;1254;64989;-53
2023/09/28 01:40:51;;;;;;;12.20;9.20;;;;;;;16.26;63.76;101585.06;105676;1251;61367;-52
2023/09/28 01:43:19;;;;;;;15.60;9.30;;;;;;;16.23;63.74;101587.05;105408;1254;63785;-52
2023/09/28 01:45:49;;;;;;;12.80;9.20;;;;;;;16.21;63.76;101587.10;105392;1253;60652;-53
2023/09/28 01:48:18;;;;;;;16.70;9.90;;;;;;;16.19;63.68;101586.17;105983;1252;60539;-52
2023/09/28 01:50:45;;;;;;;13.30;9.60;;;;;;;16.16;63.73;101585.48;105508;1251;63859;-53
2023/09/28 01:53:13;;;;;;;11.70;8.80;;;;;;;16.16;63.60;101584.98;105391;1257;70140;-50
2023/09/28 01:55:41;;;;;;;13.10;8.20;;;;;;;16.16;63.76;101592.07;105245;1251;71363;-53
2023/09/28 01:58:09;;;;;;;12.50;8.30;;;;;;;16.16;63.70;101596.46;105285;1254;60571;-53
2023/09/28 02:00:36;;;;;;;12.10;9.30;;;;;;;16.16;63.84;101597.86;105423;1251;60645;-54
2023/09/28 02:03:05;;;;;;;13.80;9.30;;;;;;;16.16;63.85;101597.23;105531;1251;63769;-54
2023/09/28 02:05:34;;;;;;;15.70;10.10;;;;;;;16.15;63.79;101600.67;109337;1256;60085;-52
2023/09/28 02:08:05;;;;;;;14.00;9.30;;;;;;;16.12;63.68;101597.86;106382;1251;64168;-54
2023/09/28 02:10:33;;;;;;;15.20;8.60;;;;;;;16.10;64.10;101598.36;105730;1254;60451;-53
2023/09/28 02:13:01;;;;;;;14.60;8.90;;;;;;;16.13;64.26;101597.39;105482;1251;60565;-52
2023/09/28 02:15:28;;;;;;;13.20;9.20;;;;;;;16.14;64.27;101594.84;105706;1256;64875;-53
2023/09/28 02:17:56;;;;;;;12.00;8.80;;;;;;;16.16;64.51;101593.84;105324;1257;60369;-53
2023/09/28 02:20:23;;;;;;;13.20;9.80;;;;;;;16.13;64.41;101593.52;105453;1251;63720;-54
2023/09/28 02:22:54;;;;;;;14.70;8.80;;;;;;;16.08;64.60;101594.13;105401;1253;60645;-54
2023/09/28 02:25:24;;;;;;;13.80;8.80;;;;;;;16.03;64.67;101594.22;105319;1258;60447;-53
2023/09/28 02:27:52;;;;;;;11.80;8.20;;;;;;;15.99;64.86;101593.83;106724;1256;65000;-53
2023/09/28 02:30:22;;;;;;;12.10;9.20;;;;;;;16.00;64.82;101596.73;105342;1256;60457;-53
2023/09/28 02:32:51;;;;;;;16.10;9.10;;;;;;;16.04;64.80;101595.54;105998;1251;63689;-52
2023/09/28 02:35:20;;;;;;;10.90;8.40;;;;;;;16.07;64.77;101600.41;106012;1258;60488;-52
2023/09/28 02:37:48;;;;;;;15.20;9.70;;;;;;;16.09;64.89;101603.65;105464;1257;60434;-52
2023/09/28 02:40:17;;;;;;;11.90;9.40;;;;;;;16.11;65.07;101604.36;105870;1257;65014;-52
2023/09/28 02:42:48;;;;;;;16.40;9.70;;;;;;;16.13;65.22;101602.77;106223;1251;61553;-53
2023/09/28 02:45:17;;;;;;;12.20;8.90;;;;;;;16.15;65.40;101600.48;106025;1256;63695;-50
2023/09/28 02:47:47;;;;;;;13.80;9.30;;;;;;;16.19;65.51;101598.21;106071;1254;60577;-49
2023/09/28 02:50:16;;;;;;;13.10;9.20;;;;;;;16.23;65.52;101599.48;106883;1254;60482;-52
2023/09/28 02:52:46;;;;;;;13.10;9.40;;;;;;;16.26;65.49;101601.50;105308;1254;64891;-52
2023/09/28 02:55:14;;;;;;;12.90;9.00;;;;;;;16.23;65.18;101600.86;105373;1257;61457;-53
2023/09/28 02:57:41;;;;;;;15.70;9.70;;;;;;;16.15;65.20;101599.59;105379;1254;63756;-52
2023/09/28 03:00:29;;;;;;;16.20;10.90;;;;;;;16.08;65.38;101598.05;105462;1253;60706;-51
2023/09/28 03:02:57;;;;;;;15.60;9.90;;;;;;;16.04;65.51;101596.94;105665;1253;60574;-50
2023/09/28 03:05:26;;;;;;;16.10;9.40;;;;;;;16.03;65.30;101596.52;105306;1254;64970;-53
2023/09/28 03:07:54;;;;;;;13.00;9.80;;;;;;;16.01;65.15;101595.05;106685;1254;61505;-53
2023/09/28 03:10:21;;;;;;;13.70;10.30;;;;;;;16.00;65.24;101590.89;105438;1251;63773;-53
2023/09/28 03:12:51;;;;;;;15.30;9.90;;;;;;;16.00;65.36;101585.45;105459;1253;60971;-53
2023/09/28 03:15:20;;;;;;;15.40;11.20;;;;;;;16.02;65.49;101586.53;105966;1254;60491;-52
2023/09/28 03:17:48;;;;;;;15.50;10.20;;;;;;;16.01;65.23;101585.03;105949;1251;63729;-51
2023/09/28 03:20:17;;;;;;;15.00;11.00;;;;;;;15.93;65.13;101587.77;105555;1257;61484;-52
2023/09/28 03:22:47;;;;;;;15.30;10.00;;;;;;;15.89;65.17;101589.20;106039;1257;63725;-53
2023/09/28 03:25:17;;;;;;;14.60;10.70;;;;;;;15.88;65.02;101595.28;105474;1256;60559;-52
2023/09/28 03:27:51;;;;;;;13.60;10.20;;;;;;;15.87;64.94;101593.06;105880;1257;60598;-53
2023/09/28 03:30:23;;;;;;;15.80;10.00;;;;;;;15.86;64.83;101589.23;106063;1259;65428;-53
2023/09/28 03:32:51;;;;;;;13.60;9.80;;;;;;;15.85;66.10;101589.50;105980;1251;61354;-54
2023/09/28 03:35:19;;;;;;;15.80;10.20;;;;;;;15.84;67.24;101595.30;105410;1256;62469;-51
2023/09/28 03:37:47;;;;;;;16.30;11.00;;;;;;;15.83;66.89;101590.20;106041;1256;60549;-52
2023/09/28 03:40:16;;;;;;;12.30;9.80;;;;;;;15.82;66.39;101594.59;105427;1251;60549;-52
2023/09/28 03:42:46;;;;;;;16.40;10.00;;;;;;;15.80;66.09;101596.13;106223;1257;64916;-51
2023/09/28 03:45:21;;;;;;;12.80;9.10;;;;;;;15.80;65.65;101599.83;106014;1254;61407;-47
2023/09/28 03:47:52;;;;;;;13.60;9.90;;;;;;;15.83;65.63;101605.11;106737;1256;63802;-54
2023/09/28 03:50:22;;;;;;;13.90;9.90;;;;;;;15.85;65.33;101608.79;105741;1257;60551;-53
2023/09/28 03:52:50;;;;;;;11.70;8.40;;;;;;;15.84;65.30;101608.33;109333;1251;58488;-53
2023/09/28 03:55:19;;;;;;;12.00;9.00;;;;;;;15.85;65.22;101609.92;109295;1256;64885;-54
2023/09/28 03:57:47;;;;;;;11.90;8.80;;;;;;;15.84;65.18;101608.08;109345;1251;61352;-54
2023/09/28 04:00:16;;;;;;;14.60;9.40;;;;;;;15.83;64.98;101609.72;109253;1251;62458;-52
2023/09/28 04:02:45;;;;;;;10.70;7.90;;;;;;;15.82;65.21;101613.11;109310;1253;58710;-53
2023/09/28 04:05:17;;;;;;;13.30;8.90;;;;;;;15.86;64.95;101612.42;109250;1253;58451;-53
2023/09/28 04:07:46;;;;;;;12.00;8.90;;;;;;;15.90;64.80;101611.58;105369;1257;64848;-47
2023/09/28 04:10:14;;;;;;;10.50;8.20;;;;;;;15.94;64.74;101611.73;106147;1257;60560;-54
2023/09/28 04:12:42;;;;;;;12.10;8.70;;;;;;;15.96;64.76;101609.48;105982;1253;63724;-54
2023/09/28 04:15:10;;;;;;;12.00;8.90;;;;;;;15.95;64.84;101610.79;105406;1253;60513;-53
2023/09/28 04:17:38;;;;;;;11.90;9.50;;;;;;;15.94;64.85;101611.77;105309;1251;60642;-53
2023/09/28 04:20:11;;;;;;;12.30;9.40;;;;;;;15.92;64.82;101614.56;105456;1253;64873;-52
2023/09/28 04:22:39;;;;;;;14.30;10.00;;;;;;;15.91;64.84;101615.06;105209;1251;61106;-51
2023/09/28 04:25:07;;;;;;;14.50;9.20;;;;;;;15.95;64.95;101615.36;105272;1251;64115;-53
2023/09/28 04:27:35;;;;;;;14.40;10.30;;;;;;;15.99;64.96;101615.23;105385;1251;60481;-51
2023/09/28 04:30:03;;;;;;;15.90;10.80;;;;;;;16.04;65.26;101611.33;105422;1256;60856;-49
2023/09/28 04:32:31;;;;;;;15.10;10.80;;;;;;;16.13;65.48;101609.80;105557;1251;64928;-51
2023/09/28 04:34:59;;;;;;;20.50;11.60;;;;;;;16.20;65.44;101610.30;105204;1258;61895;-49
2023/09/28 04:37:27;;;;;;;14.90;11.20;;;;;;;16.24;65.22;101614.91;105738;1254;63689;-50
2023/09/28 04:39:54;;;;;;;13.80;10.10;;;;;;;16.26;65.05;101614.56;105172;1251;60527;-53
2023/09/28 04:42:21;;;;;;;14.00;10.60;;;;;;;16.28;64.78;101615.15;105236;1259;60392;-48
2023/09/28 04:44:49;;;;;;;16.00;10.40;;;;;;;16.32;64.59;101615.52;105274;1257;66871;-50
2023/09/28 04:47:17;;;;;;;14.80;11.60;;;;;;;16.38;64.48;101612.00;104981;1252;60390;-49
2023/09/28 04:49:45;;;;;;;16.00;11.40;;;;;;;16.44;64.26;101612.23;109266;1251;64204;-49
2023/09/28 04:52:13;;;;;;;16.60;11.50;;;;;;;16.48;64.08;101613.56;109318;1251;58480;-49
2023/09/28 04:54:41;;;;;;;13.90;10.60;;;;;;;16.51;63.83;101613.84;109298;1254;58446;-52
2023/09/28 04:57:09;;;;;;;18.40;10.80;;;;;;;16.57;63.46;101612.14;109309;1251;64905;-53
2023/09/28 04:59:40;;;;;;;15.30;10.50;;;;;;;16.63;63.06;101617.45;109342;1255;61356;-54
2023/09/28 05:02:08;;;;;;;14.10;10.80;;;;;;;16.67;63.17;101617.81;109278;1251;63719;-50
2023/09/28 05:04:36;;;;;;;14.40;10.30;;;;;;;16.70;63.23;101619.86;107912;1251;60469;-51
2023/09/28 05:07:04;;;;;;;19.10;10.80;;;;;;;16.74;63.36;101621.84;105412;1251;60501;-51
2023/09/28 05:09:35;;;;;;;13.10;9.40;;;;;;;16.76;63.32;101622.38;105585;1251;64922;-52
2023/09/28 05:12:04;;;;;;;15.90;10.30;;;;;;;16.81;62.76;101629.03;105506;1257;69299;-51
2023/09/28 05:14:31;;;;;;;16.30;10.90;;;;;;;16.86;62.28;101634.67;105643;1257;62438;-52
2023/09/28 05:17:00;;;;;;;14.70;11.10;;;;;;;16.88;62.08;101635.73;105520;1257;60454;-53
2023/09/28 05:19:30;;;;;;;14.80;9.90;;;;;;;16.88;62.18;101635.67;105746;1251;60393;-52
2023/09/28 05:21:58;;;;;;;15.90;10.50;;;;;;;16.89;62.40;101635.27;105369;1256;66883;-53
2023/09/28 05:24:25;;;;;;;14.40;10.70;;;;;;;16.90;62.38;101634.45;106608;1257;60434;-52
2023/09/28 05:26:54;;;;;;;14.80;10.10;;;;;;;16.92;62.24;101632.52;105843;1257;62715;-47
2023/09/28 05:29:22;;;;;;;15.60;11.00;;;;;;;16.99;62.25;101635.35;105500;1251;60445;-52
2023/09/28 05:31:50;;;;;;;14.80;11.00;;;;;;;17.05;62.41;101633.73;105984;1256;60313;-51
2023/09/28 05:34:18;;;;;;;17.50;10.40;;;;;;;17.08;62.37;101633.13;105486;1252;63607;-54
2023/09/28 05:36:45;;;;;;;14.80;10.40;;;;;;;17.08;62.52;101636.63;106184;1256;61433;-52
2023/09/28 05:39:13;;;;;;;17.90;11.90;;;;;;;17.08;62.57;101638.17;105371;1255;63890;-53
2023/09/28 05:41:41;;;;;;;16.90;11.70;;;;;;;17.10;62.53;101635.73;105413;1255;60597;-52
2023/09/28 05:44:08;;;;;;;14.50;11.00;;;;;;;17.10;62.61;101633.94;105455;1252;60315;-50
2023/09/28 05:46:40;;;;;;;14.00;10.30;;;;;;;17.15;62.42;101634.58;105339;1254;65042;-52
2023/09/28 05:49:07;;;;;;;13.40;10.20;;;;;;;17.22;62.36;101636.84;105370;1257;61435;-52
2023/09/28 05:51:35;;;;;;;16.10;9.50;;;;;;;17.29;62.09;101630.70;105363;1257;64443;-52
2023/09/28 05:54:03;;;;;;;14.70;10.40;;;;;;;17.36;61.88;101633.84;105388;1257;60629;-52
2023/09/28 05:56:31;;;;;;;17.50;11.70;;;;;;;17.43;61.74;101634.23;105783;1256;60379;-50
2023/09/28 05:59:02;;;;;;;14.20;10.10;;;;;;;17.47;61.65;101631.98;105531;1257;67019;-48
2023/09/28 06:01:30;;;;;;;18.80;11.70;;;;;;;17.51;61.64;101631.79;105413;1257;61654;-50
2023/09/28 06:03:57;;;;;;;16.70;11.00;;;;;;;17.55;61.26;101632.27;105419;1256;63780;-47
2023/09/28 06:06:25;;;;;;;15.80;11.00;;;;;;;17.58;61.02;101630.39;106545;1257;60322;-44
2023/09/28 06:08:53;;;;;;;15.70;10.10;;;;;;;17.63;60.69;101633.36;106733;1256;60373;-48
2023/09/28 06:11:22;;;;;;;18.20;10.70;;;;;;;17.69;60.54;101635.48;105260;1257;65465;-62
2023/09/28 06:13:50;;;;;;;13.70;9.90;;;;;;;17.74;60.75;101638.06;104948;1264;322012;-60
2023/09/28 06:18:47;;;;;;;14.70;11.00;;;;;;;17.60;61.03;101639.14;102214;1292;600217;-61
2023/09/28 06:21:14;;;;;;;18.20;11.60;;;;;;;17.76;60.54;101641.98;104353;1267;59351;-59
2023/09/28 06:23:42;;;;;;;16.60;10.50;;;;;;;17.80;60.66;101643.52;106019;1267;59245;-58
2023/09/28 06:26:09;;;;;;;15.10;10.90;;;;;;;17.85;60.48;101641.14;105071;1267;63315;-59
2023/09/28 06:28:41;;;;;;;14.20;11.40;;;;;;;17.89;60.52;101643.45;105054;1259;61441;-58
2023/09/28 06:31:09;;;;;;;17.40;10.40;;;;;;;17.94;60.60;101647.27;104892;1259;258470;-56
2023/09/28 06:33:36;;;;;;;17.70;10.10;;;;;;;17.98;60.67;101647.77;105190;1256;59982;-63
2023/09/28 06:36:04;;;;;;;17.20;11.90;;;;;;;18.02;60.73;101645.30;105176;1256;59708;-60
2023/09/28 06:38:33;;;;;;;15.10;11.10;;;;;;;18.04;60.74;101644.27;105007;1256;63239;-62
2023/09/28 06:41:00;;;;;;;17.50;11.30;;;;;;;18.09;60.84;101643.96;105201;1256;71287;-58
2023/09/28 06:43:28;;;;;;;15.50;11.80;;;;;;;18.15;60.88;101643.39;109267;1260;63835;-56
2023/09/28 06:45:58;;;;;;;16.20;10.90;;;;;;;18.21;60.96;101644.11;109045;1253;57611;-57
2023/09/28 06:48:26;;;;;;;15.00;10.90;;;;;;;18.24;60.59;101645.44;108121;1253;59746;-62
2023/09/28 06:50:57;;;;;;;19.80;12.30;;;;;;;18.24;60.55;101650.37;105845;1253;64213;-58
2023/09/28 06:53:27;;;;;;;18.90;12.70;;;;;;;18.30;60.40;101650.35;105388;1256;61596;-59
2023/09/28 06:56:01;;;;;;;19.00;11.30;;;;;;;18.34;60.24;101654.41;105789;1254;66114;-57
2023/09/28 06:58:40;;;;;;;16.60;10.70;;;;;;;18.40;59.80;101654.23;105439;1256;59704;-55
2023/09/28 07:01:08;;;;;;;14.00;11.20;;;;;;;18.46;59.88;101652.83;105370;1256;59734;-55
2023/09/28 07:03:39;;;;;;;18.30;11.50;;;;;;;18.50;59.92;101650.86;105622;1256;65938;-54
2023/09/28 07:06:09;;;;;;;15.00;11.70;;;;;;;18.54;60.10;101653.08;105644;1256;62129;-55
2023/09/28 07:08:38;;;;;;;21.70;11.70;;;;;;;18.57;59.68;101653.36;105250;1257;65726;-59
2023/09/28 07:11:06;;;;;;;16.00;11.60;;;;;;;18.57;59.45;101652.45;105260;1257;59839;-58
2023/09/28 07:13:34;;;;;;;19.40;11.80;;;;;;;18.59;59.60;101650.34;105190;1256;59627;-59
2023/09/28 07:16:03;;;;;;;13.20;10.20;;;;;;;18.66;59.68;101647.55;105822;1256;64659;-59
2023/09/28 07:18:31;;;;;;;16.90;11.30;;;;;;;18.75;59.12;101652.54;105476;1258;61771;-59
2023/09/28 07:20:59;;;;;;;18.10;12.40;;;;;;;18.82;58.78;101650.35;105096;1257;66457;-52
2023/09/28 07:23:26;;;;;;;21.90;12.70;;;;;;;18.89;58.65;101652.57;105237;1254;59687;-50
2023/09/28 07:25:55;;;;;;;17.60;12.30;;;;;;;18.94;58.66;101650.04;105610;1255;59523;-50
2023/09/28 07:28:23;;;;;;;17.10;12.20;;;;;;;19.01;58.60;101648.41;105789;1257;64815;-52
2023/09/28 07:30:51;;;;;;;17.30;11.70;;;;;;;19.05;58.66;101646.40;105369;1254;61441;-51
2023/09/28 07:33:20;;;;;;;17.10;11.20;;;;;;;19.10;58.78;101646.63;106030;1256;62464;-50
2023/09/28 07:35:48;;;;;;;19.60;10.70;;;;;;;19.21;58.83;101647.73;105788;1256;59671;-50
2023/09/28 07:38:16;;;;;;;17.20;10.50;;;;;;;19.34;58.51;101644.14;105253;1254;60683;-49
2023/09/28 07:40:44;;;;;;;16.40;11.40;;;;;;;19.44;58.23;101643.61;106259;1254;63227;-50
2023/09/28 07:43:14;;;;;;;15.40;11.40;;;;;;;19.55;58.27;101644.95;105495;1257;71646;-45
2023/09/28 07:45:43;;;;;;;16.40;12.30;;;;;;;19.62;57.94;101644.23;105236;1253;62495;-45
2023/09/28 07:48:11;;;;;;;17.90;12.50;;;;;;;19.70;57.80;101643.25;105382;1256;59756;-45
2023/09/28 07:50:38;;;;;;;17.70;12.60;;;;;;;19.78;57.59;101644.66;105527;1256;59573;-48
2023/09/28 07:53:08;;;;;;;19.30;12.40;;;;;;;19.86;57.10;101642.42;105263;1253;66212;-52
2023/09/28 07:55:37;;;;;;;18.00;12.30;;;;;;;19.96;57.04;101641.41;105313;1260;62357;-48
2023/09/28 07:58:04;;;;;;;17.50;11.80;;;;;;;20.05;56.65;101642.45;107848;1254;64170;-47
2023/09/28 08:00:52;;;;;;;15.20;11.80;;;;;;;20.14;56.39;101640.36;105267;1255;59648;-47
2023/09/28 08:03:20;;;;;;;17.00;12.10;;;;;;;20.20;55.96;101637.73;107595;1252;59782;-47
2023/09/28 08:05:48;;;;;;;16.90;12.30;;;;;;;20.27;56.12;101636.55;105365;1254;65738;-49
2023/09/28 08:08:18;;;;;;;24.60;14.30;;;;;;;20.33;55.82;101635.39;105842;1255;61314;-46
2023/09/28 08:10:47;;;;;;;21.40;12.60;;;;;;;20.37;55.32;101638.48;105870;1255;63696;-48
2023/09/28 08:13:15;;;;;;;22.50;11.80;;;;;;;20.40;55.20;101642.71;105940;1256;61005;-49
2023/09/28 08:15:46;;;;;;;19.60;14.30;;;;;;;20.43;55.56;101639.16;105368;1257;59625;-46
2023/09/28 08:18:13;;;;;;;16.50;11.90;;;;;;;20.52;55.21;101637.89;105359;1252;64266;-46
2023/09/28 08:20:42;;;;;;;18.90;12.00;;;;;;;20.63;55.07;101634.13;106049;1257;60251;-47
2023/09/28 08:23:31;;;;;;;19.50;12.60;;;;;;;20.75;54.71;101633.45;105087;1254;63737;-47
2023/09/28 08:26:00;;;;;;;18.40;12.70;;;;;;;20.84;55.12;101633.20;105348;1257;59548;-46
2023/09/28 08:28:27;;;;;;;21.80;14.10;;;;;;;20.93;54.88;101630.48;106346;1256;60114;-46
2023/09/28 08:30:56;;;;;;;16.60;13.10;;;;;;;21.03;54.36;101626.94;105149;1256;64064;-46
2023/09/28 08:33:25;;;;;;;21.30;13.00;;;;;;;21.11;53.72;101624.86;105472;1254;72685;-50
2023/09/28 08:35:52;;;;;;;18.70;12.50;;;;;;;21.17;53.78;101623.14;105090;1256;63745;-46
2023/09/28 08:38:20;;;;;;;17.20;12.20;;;;;;;21.23;53.90;101625.17;105821;1257;59644;-53
2023/09/28 08:40:54;;;;;;;15.50;11.60;;;;;;;21.28;53.77;101623.06;105182;1254;59853;-54
2023/09/28 08:43:22;;;;;;;17.50;12.60;;;;;;;21.34;53.49;101619.37;105730;1256;75242;-52
2023/09/28 08:45:50;;;;;;;21.00;13.40;;;;;;;21.39;53.38;101615.67;105093;1254;61622;-53
2023/09/28 08:48:21;;;;;;;18.30;11.30;;;;;;;21.46;53.19;101609.96;107546;1254;64231;-54
2023/09/28 08:50:49;;;;;;;16.50;12.10;;;;;;;21.56;53.01;101609.94;105960;1255;59756;-55
2023/09/28 08:53:16;;;;;;;16.30;11.30;;;;;;;21.68;52.76;101608.41;104829;1254;59762;-54
2023/09/28 08:55:45;;;;;;;15.40;11.40;;;;;;;21.78;52.67;101605.44;105169;1253;66671;-53
2023/09/28 08:58:13;;;;;;;15.00;11.30;;;;;;;21.87;52.75;101597.43;105040;1254;72516;-54
2023/09/28 09:00:40;;;;;;;16.40;11.10;;;;;;;21.96;52.35;101595.22;105203;1256;62448;-54
2023/09/28 09:03:08;;;;;;;17.00;11.10;;;;;;;22.05;52.10;101594.64;105368;1254;62283;-54
2023/09/28 09:05:38;;;;;;;16.70;11.50;;;;;;;22.12;51.85;101588.51;105036;1261;59662;-54
2023/09/28 09:08:06;;;;;;;15.10;11.30;;;;;;;22.19;51.76;101585.75;105572;1254;64513;-54
2023/09/28 09:10:34;;;;;;;18.40;10.90;;;;;;;22.26;51.25;101580.52;105405;1260;60344;-54
2023/09/28 09:13:01;;;;;;;15.00;10.90;;;;;;;22.32;50.97;101583.44;105182;1254;63851;-53
2023/09/28 09:15:29;;;;;;;19.80;11.90;;;;;;;22.39;51.09;101581.81;105301;1254;59741;-52
2023/09/28 09:18:02;;;;;;;18.00;11.30;;;;;;;22.45;51.11;101580.80;105354;1256;60932;-53
2023/09/28 09:20:30;;;;;;;17.10;11.00;;;;;;;22.51;50.63;101578.30;105206;1257;64295;-52
2023/09/28 09:23:11;;;;;;;20.10;11.10;;;;;;;22.59;50.92;101573.95;105248;1254;72063;-52
2023/09/28 09:25:53;;;;;;;14.90;10.10;;;;;;;22.70;50.88;101569.58;105296;1256;62774;-53
2023/09/28 09:28:30;;;;;;;16.80;10.60;;;;;;;22.79;50.25;101567.95;105998;1255;59763;-53
2023/09/28 09:30:57;;;;;;;;;;;;;;;22.89;50.19;101562.89;108143;1254;57922;-54
2023/09/28 09:33:26;;;;;;;16.60;10.50;;;;;;;22.98;49.42;101562.77;105214;1257;75661;-53
2023/09/28 09:35:53;;;;;;;17.10;9.40;;;;;;;23.04;49.17;101557.44;105836;1256;60824;-52
2023/09/28 09:38:27;;;;;;;15.20;9.90;;;;;;;23.12;49.20;101552.99;105231;1252;66610;-54
2023/09/28 09:41:04;;;;;;;14.50;9.70;;;;;;;23.22;49.19;101553.16;105284;1254;59728;-54
2023/09/28 09:43:34;;;;;;;14.60;9.60;;;;;;;23.32;48.99;101553.40;105272;1254;59699;-54
2023/09/28 09:46:04;;;;;;;16.30;9.20;;;;;;;23.44;48.59;101551.84;105147;1254;65334;-54
2023/09/28 09:48:42;;;;;;;13.30;9.50;;;;;;;23.54;48.38;101550.23;106277;1254;61567;-52
2023/09/28 09:51:17;;;;;;;14.30;8.30;;;;;;;23.65;48.21;101543.98;105184;1254;64113;-57
2023/09/28 09:53:46;;;;;;;15.80;8.60;;;;;;;23.74;47.65;101544.50;105925;1254;59589;-55
2023/09/28 09:56:15;;;;;;;16.10;9.10;;;;;;;23.84;47.43;101540.88;105998;1259;59701;-55
2023/09/28 09:58:47;;;;;;;15.30;8.80;;;;;;;23.95;46.93;101540.64;105238;1257;63056;-54
2023/09/28 10:01:16;;;;;;;14.40;8.70;;;;;;;24.05;46.62;101538.69;105310;1257;61703;-48
2023/09/28 10:03:52;;;;;;;13.60;8.90;;;;;;;24.14;46.09;101540.36;109194;1253;74875;-47
2023/09/28 10:06:20;;;;;;;;;;;;;;;24.22;46.15;101540.67;105768;1253;59778;-47
2023/09/28 10:08:49;;;;;;;13.40;9.30;;;;;;;24.29;45.52;101536.36;105906;1257;59701;-47
2023/09/28 10:11:17;;;;;;;15.70;8.70;;;;;;;24.35;45.34;101533.70;105983;1254;64205;-47
2023/09/28 10:13:48;;;;;;;14.60;8.50;;;;;;;24.42;44.95;101533.38;106842;1256;62475;-46
2023/09/28 10:16:17;;;;;;;15.20;8.50;;;;;;;24.46;44.31;101527.48;105884;1254;65719;-45
2023/09/28 10:18:47;;;;;;;10.80;8.30;;;;;;;24.50;44.34;101527.81;105831;1256;59734;-47
2023/09/28 10:21:15;;;;;;;12.10;8.10;;;;;;;24.55;43.99;101525.55;105363;1256;59742;-47
2023/09/28 10:23:43;;;;;;;11.40;8.30;;;;;;;24.62;43.84;101522.03;105283;1251;64140;-47
2023/09/28 10:26:15;;;;;;;14.20;9.10;;;;;;;24.71;43.88;101522.21;105282;1253;61822;-47
2023/09/28 10:29:06;;;;;;;11.40;8.20;;;;;;;24.83;44.04;101518.47;105195;1257;74913;-47
2023/09/28 10:31:39;;;;;;;12.10;8.40;;;;;;;24.92;43.00;101516.70;105355;1254;62111;-47
2023/09/28 10:34:27;;;;;;;17.70;8.30;;;;;;;25.02;42.37;101513.75;105869;1254;61434;-48
2023/09/28 10:37:08;;;;;;;12.60;7.90;;;;;;;25.09;42.11;101512.99;105568;1254;65057;-47
2023/09/28 10:39:35;;;;;;;10.90;7.60;;;;;;;25.17;42.08;101511.91;105248;1257;60568;-48
2023/09/28 10:42:04;;;;;;;15.60;7.80;;;;;;;25.24;41.81;101507.09;105401;1254;62589;-47
2023/09/28 10:44:32;;;;;;;13.60;7.90;;;;;;;25.31;41.12;101504.91;105288;1254;60509;-48
2023/09/28 10:47:00;;;;;;;11.10;7.00;;;;;;;25.39;40.92;101507.54;105359;1256;62212;-48
2023/09/28 10:49:28;;;;;;;15.00;8.30;;;;;;;25.44;40.35;101497.80;105225;1257;65376;-47
2023/09/28 10:51:56;;;;;;;11.60;7.90;;;;;;;25.49;40.22;101496.40;105182;1257;60577;-47
2023/09/28 10:54:24;;;;;;;14.10;7.60;;;;;;;25.56;39.48;101495.63;105664;1253;62550;-48
2023/09/28 10:56:52;;;;;;;11.40;7.10;;;;;;;25.63;38.95;101491.16;105331;1253;60561;-48
2023/09/28 10:59:19;;;;;;;10.90;6.70;;;;;;;25.71;39.05;101490.02;106076;1254;60559;-46
2023/09/28 11:01:48;;;;;;;10.50;6.40;;;;;;;25.76;37.67;101485.88;105353;1256;67395;-49
2023/09/28 11:04:16;;;;;;;12.20;7.00;;;;;;;25.84;37.71;101487.11;107561;1256;61569;-47
2023/09/28 11:06:50;;;;;;;12.10;7.30;;;;;;;25.94;38.10;101484.92;105938;1254;62900;-48
2023/09/28 11:09:19;;;;;;;10.90;6.90;;;;;;;26.03;37.37;101483.99;106012;1254;60415;-46
2023/09/28 11:11:49;;;;;;;12.30;7.50;;;;;;;26.10;36.91;101477.68;105980;1257;60434;-47
2023/09/28 11:14:18;;;;;;;10.70;7.40;;;;;;;26.16;36.37;101474.57;105261;1257;64922;-47
2023/09/28 11:16:49;;;;;;;11.10;6.20;;;;;;;26.22;35.67;101470.04;105266;1254;61565;-46
2023/09/28 11:19:17;;;;;;;12.10;6.90;;;;;;;26.27;35.94;101464.33;106087;1253;63739;-48
2023/09/28 11:21:45;;;;;;;12.30;7.30;;;;;;;26.33;35.62;101463.30;105870;1256;60537;-47